sensor_id;sensor_type;location;lat;lon;timestamp;P1;durP1;ratioP1;P2;durP2;ratioP2
54679;SDS011;40578;53.178;5.846;2023-03-01T00:01:27;23.83;;;14.95;;
54679;SDS011;40578;53.178;5.846;2023-03-01T00:03:54;26.90;;;15.67;;
54679;SDS011;40578;53.178;5.846;2023-03-01T00:06:21;27.92;;;17.33;;
54679;SDS011;40578;53.178;5.846;2023-03-01T00:08:47;54.72;;;18.77;;
54679;SDS011;40578;53.178;5.846;2023-03-01T00:11:15;28.35;;;16.92;;
54679;SDS011;40578;53.178;5.846;2023-03-01T00:13:42;30.47;;;17.47;;
54679;SDS011;40578;53.178;5.846;2023-03-01T00:16:10;28.80;;;17.37;;
54679;SDS011;40578;53.178;5.846;2023-03-01T00:18:40;29.07;;;17.43;;
54679;SDS011;40578;53.178;5.846;2023-03-01T00:21:06;27.87;;;16.30;;
54679;SDS011;40578;53.178;5.846;2023-03-01T00:23:33;31.80;;;19.70;;
54679;SDS011;40578;53.178;5.846;2023-03-01T00:25:59;35.43;;;18.53;;
54679;SDS011;40578;53.178;5.846;2023-03-01T00:28:25;28.73;;;15.77;;
54679;SDS011;40578;53.178;5.846;2023-03-01T00:30:50;26.60;;;16.23;;
54679;SDS011;40578;53.178;5.846;2023-03-01T00:33:16;26.57;;;15.67;;
54679;SDS011;40578;53.178;5.846;2023-03-01T00:35:41;29.73;;;17.40;;
54679;SDS011;40578;53.178;5.846;2023-03-01T00:38:07;30.10;;;17.47;;
54679;SDS011;40578;53.178;5.846;2023-03-01T00:40:34;28.40;;;16.58;;
54679;SDS011;40578;53.178;5.846;2023-03-01T00:43:00;23.37;;;13.47;;
54679;SDS011;40578;53.178;5.846;2023-03-01T00:45:27;52.72;;;14.68;;
54679;SDS011;40578;53.178;5.846;2023-03-01T00:47:53;36.03;;;12.05;;
54679;SDS011;40578;53.178;5.846;2023-03-01T00:50:18;193.37;;;14.97;;
54679;SDS011;40578;53.178;5.846;2023-03-01T00:52:44;164.40;;;15.60;;
54679;SDS011;40578;53.178;5.846;2023-03-01T00:55:10;362.25;;;20.38;;
54679;SDS011;40578;53.178;5.846;2023-03-01T00:57:36;438.70;;;21.00;;
54679;SDS011;40578;53.178;5.846;2023-03-01T01:00:03;344.37;;;19.03;;
54679;SDS011;40578;53.178;5.846;2023-03-01T01:02:33;540.13;;;26.07;;
54679;SDS011;40578;53.178;5.846;2023-03-01T01:04:59;312.23;;;17.43;;
54679;SDS011;40578;53.178;5.846;2023-03-01T01:07:25;213.40;;;14.23;;
54679;SDS011;40578;53.178;5.846;2023-03-01T01:09:50;246.27;;;16.93;;
54679;SDS011;40578;53.178;5.846;2023-03-01T01:12:16;297.17;;;16.03;;
54679;SDS011;40578;53.178;5.846;2023-03-01T01:14:42;244.93;;;15.30;;
54679;SDS011;40578;53.178;5.846;2023-03-01T01:17:07;215.23;;;15.80;;
54679;SDS011;40578;53.178;5.846;2023-03-01T01:19:33;159.17;;;15.77;;
54679;SDS011;40578;53.178;5.846;2023-03-01T01:21:58;161.23;;;17.20;;
54679;SDS011;40578;53.178;5.846;2023-03-01T01:24:24;204.53;;;16.50;;
54679;SDS011;40578;53.178;5.846;2023-03-01T01:26:50;185.90;;;15.57;;
54679;SDS011;40578;53.178;5.846;2023-03-01T01:29:15;161.23;;;15.47;;
54679;SDS011;40578;53.178;5.846;2023-03-01T01:31:41;60.20;;;12.20;;
54679;SDS011;40578;53.178;5.846;2023-03-01T01:34:08;114.15;;;14.05;;
54679;SDS011;40578;53.178;5.846;2023-03-01T01:36:39;160.33;;;15.37;;
54679;SDS011;40578;53.178;5.846;2023-03-01T01:39:05;103.53;;;13.97;;
54679;SDS011;40578;53.178;5.846;2023-03-01T01:41:31;96.80;;;13.07;;
54679;SDS011;40578;53.178;5.846;2023-03-01T01:47:02;97.37;;;14.47;;
54679;SDS011;40578;53.178;5.846;2023-03-01T01:52:10;111.23;;;15.23;;
54679;SDS011;40578;53.178;5.846;2023-03-01T01:55:08;86.53;;;14.60;;
54679;SDS011;40578;53.178;5.846;2023-03-01T01:57:46;91.57;;;15.00;;
54679;SDS011;40578;53.178;5.846;2023-03-01T02:00:22;208.40;;;19.20;;
54679;SDS011;40578;53.178;5.846;2023-03-01T02:02:51;130.67;;;16.43;;
54679;SDS011;40578;53.178;5.846;2023-03-01T02:08:02;210.17;;;19.00;;
54679;SDS011;40578;53.178;5.846;2023-03-01T02:10:28;160.80;;;17.00;;
54679;SDS011;40578;53.178;5.846;2023-03-01T02:12:59;107.43;;;17.30;;
54679;SDS011;40578;53.178;5.846;2023-03-01T02:15:25;53.20;;;16.70;;
54679;SDS011;40578;53.178;5.846;2023-03-01T02:17:52;88.30;;;16.23;;
54679;SDS011;40578;53.178;5.846;2023-03-01T02:23:02;49.27;;;15.43;;
54679;SDS011;40578;53.178;5.846;2023-03-01T02:30:52;22.63;;;13.83;;
54679;SDS011;40578;53.178;5.846;2023-03-01T02:33:37;24.73;;;14.97;;
54679;SDS011;40578;53.178;5.846;2023-03-01T02:36:05;34.23;;;14.20;;
54679;SDS011;40578;53.178;5.846;2023-03-01T02:38:34;34.07;;;16.27;;
54679;SDS011;40578;53.178;5.846;2023-03-01T02:41:00;44.67;;;15.60;;
54679;SDS011;40578;53.178;5.846;2023-03-01T02:43:30;58.23;;;16.57;;
54679;SDS011;40578;53.178;5.846;2023-03-01T02:45:59;177.73;;;20.77;;
54679;SDS011;40578;53.178;5.846;2023-03-01T02:48:37;151.70;;;19.67;;
54679;SDS011;40578;53.178;5.846;2023-03-01T02:56:29;140.87;;;19.33;;
54679;SDS011;40578;53.178;5.846;2023-03-01T02:58:55;112.37;;;18.67;;
54679;SDS011;40578;53.178;5.846;2023-03-01T03:01:26;118.13;;;19.53;;
54679;SDS011;40578;53.178;5.846;2023-03-01T03:04:02;133.00;;;19.50;;
54679;SDS011;40578;53.178;5.846;2023-03-01T03:06:33;185.07;;;21.13;;
54679;SDS011;40578;53.178;5.846;2023-03-01T03:08:59;124.70;;;17.43;;
54679;SDS011;40578;53.178;5.846;2023-03-01T03:11:25;82.63;;;17.33;;
54679;SDS011;40578;53.178;5.846;2023-03-01T03:13:51;92.85;;;17.90;;
54679;SDS011;40578;53.178;5.846;2023-03-01T03:16:17;146.57;;;19.80;;
54679;SDS011;40578;53.178;5.846;2023-03-01T03:18:43;157.20;;;18.27;;
54679;SDS011;40578;53.178;5.846;2023-03-01T03:21:10;130.15;;;17.75;;
54679;SDS011;40578;53.178;5.846;2023-03-01T03:23:36;164.03;;;18.73;;
54679;SDS011;40578;53.178;5.846;2023-03-01T03:26:03;92.25;;;18.52;;
54679;SDS011;40578;53.178;5.846;2023-03-01T03:30:55;140.73;;;19.23;;
54679;SDS011;40578;53.178;5.846;2023-03-01T03:33:21;72.97;;;16.73;;
54679;SDS011;40578;53.178;5.846;2023-03-01T03:35:48;71.30;;;17.67;;
54679;SDS011;40578;53.178;5.846;2023-03-01T03:38:15;88.73;;;18.80;;
54679;SDS011;40578;53.178;5.846;2023-03-01T03:40:49;102.23;;;18.10;;
54679;SDS011;40578;53.178;5.846;2023-03-01T03:43:29;83.03;;;17.50;;
54679;SDS011;40578;53.178;5.846;2023-03-01T03:45:57;137.03;;;20.53;;
54679;SDS011;40578;53.178;5.846;2023-03-01T03:48:23;60.03;;;17.60;;
54679;SDS011;40578;53.178;5.846;2023-03-01T03:50:50;104.70;;;18.13;;
54679;SDS011;40578;53.178;5.846;2023-03-01T03:53:21;49.00;;;16.03;;
54679;SDS011;40578;53.178;5.846;2023-03-01T03:55:47;67.27;;;16.23;;
54679;SDS011;40578;53.178;5.846;2023-03-01T03:58:16;64.53;;;16.37;;
54679;SDS011;40578;53.178;5.846;2023-03-01T04:00:45;89.00;;;16.93;;
54679;SDS011;40578;53.178;5.846;2023-03-01T04:03:12;63.88;;;17.27;;
54679;SDS011;40578;53.178;5.846;2023-03-01T04:05:39;50.23;;;16.90;;
54679;SDS011;40578;53.178;5.846;2023-03-01T04:08:05;55.85;;;17.90;;
54679;SDS011;40578;53.178;5.846;2023-03-01T04:10:41;54.13;;;17.23;;
54679;SDS011;40578;53.178;5.846;2023-03-01T04:13:12;52.13;;;17.40;;
54679;SDS011;40578;53.178;5.846;2023-03-01T04:15:41;44.13;;;16.93;;
54679;SDS011;40578;53.178;5.846;2023-03-01T04:18:14;46.60;;;16.50;;
54679;SDS011;40578;53.178;5.846;2023-03-01T04:20:41;39.77;;;17.17;;
54679;SDS011;40578;53.178;5.846;2023-03-01T04:23:08;44.72;;;17.42;;
54679;SDS011;40578;53.178;5.846;2023-03-01T04:25:48;63.00;;;17.50;;
54679;SDS011;40578;53.178;5.846;2023-03-01T04:30:53;61.77;;;18.63;;
54679;SDS011;40578;53.178;5.846;2023-03-01T04:33:21;50.00;;;17.50;;
54679;SDS011;40578;53.178;5.846;2023-03-01T04:35:47;41.07;;;17.50;;
54679;SDS011;40578;53.178;5.846;2023-03-01T04:38:14;63.17;;;18.97;;
54679;SDS011;40578;53.178;5.846;2023-03-01T04:40:41;64.40;;;17.40;;
54679;SDS011;40578;53.178;5.846;2023-03-01T04:43:08;46.73;;;15.23;;
54679;SDS011;40578;53.178;5.846;2023-03-01T04:45:35;51.07;;;14.63;;
54679;SDS011;40578;53.178;5.846;2023-03-01T04:48:01;86.13;;;16.45;;
54679;SDS011;40578;53.178;5.846;2023-03-01T04:52:54;47.33;;;14.90;;
54679;SDS011;40578;53.178;5.846;2023-03-01T04:55:23;86.87;;;14.50;;
54679;SDS011;40578;53.178;5.846;2023-03-01T04:57:53;60.80;;;14.23;;
54679;SDS011;40578;53.178;5.846;2023-03-01T05:00:19;89.57;;;15.25;;
54679;SDS011;40578;53.178;5.846;2023-03-01T05:02:56;102.83;;;16.43;;
54679;SDS011;40578;53.178;5.846;2023-03-01T05:07:55;157.37;;;17.03;;
54679;SDS011;40578;53.178;5.846;2023-03-01T05:10:22;95.63;;;15.03;;
54679;SDS011;40578;53.178;5.846;2023-03-01T05:15:14;61.10;;;15.50;;
54679;SDS011;40578;53.178;5.846;2023-03-01T05:17:40;120.13;;;15.20;;
54679;SDS011;40578;53.178;5.846;2023-03-01T05:20:06;141.02;;;16.85;;
54679;SDS011;40578;53.178;5.846;2023-03-01T05:22:35;104.07;;;15.70;;
54679;SDS011;40578;53.178;5.846;2023-03-01T05:25:01;84.80;;;15.93;;
54679;SDS011;40578;53.178;5.846;2023-03-01T05:27:27;62.65;;;14.73;;
54679;SDS011;40578;53.178;5.846;2023-03-01T05:29:52;109.13;;;15.30;;
54679;SDS011;40578;53.178;5.846;2023-03-01T05:32:18;85.70;;;14.83;;
54679;SDS011;40578;53.178;5.846;2023-03-01T05:34:44;72.63;;;14.07;;
54679;SDS011;40578;53.178;5.846;2023-03-01T05:37:11;114.10;;;16.03;;
54679;SDS011;40578;53.178;5.846;2023-03-01T05:39:38;75.47;;;15.17;;
54679;SDS011;40578;53.178;5.846;2023-03-01T05:42:04;63.40;;;15.85;;
54679;SDS011;40578;53.178;5.846;2023-03-01T05:44:30;70.68;;;16.45;;
54679;SDS011;40578;53.178;5.846;2023-03-01T05:46:56;31.60;;;14.98;;
54679;SDS011;40578;53.178;5.846;2023-03-01T05:49:22;70.93;;;15.15;;
54679;SDS011;40578;53.178;5.846;2023-03-01T05:51:52;72.90;;;15.97;;
54679;SDS011;40578;53.178;5.846;2023-03-01T05:54:21;78.80;;;15.27;;
54679;SDS011;40578;53.178;5.846;2023-03-01T05:56:47;58.70;;;15.20;;
54679;SDS011;40578;53.178;5.846;2023-03-01T05:59:13;58.70;;;15.70;;
54679;SDS011;40578;53.178;5.846;2023-03-01T06:01:40;68.63;;;15.47;;
54679;SDS011;40578;53.178;5.846;2023-03-01T06:04:06;59.35;;;15.23;;
54679;SDS011;40578;53.178;5.846;2023-03-01T06:06:35;54.73;;;15.50;;
54679;SDS011;40578;53.178;5.846;2023-03-01T06:09:02;38.80;;;14.37;;
54679;SDS011;40578;53.178;5.846;2023-03-01T06:11:28;44.85;;;14.52;;
54679;SDS011;40578;53.178;5.846;2023-03-01T06:13:54;50.27;;;15.03;;
54679;SDS011;40578;53.178;5.846;2023-03-01T06:16:20;33.20;;;14.47;;
54679;SDS011;40578;53.178;5.846;2023-03-01T06:18:45;31.47;;;14.70;;
54679;SDS011;40578;53.178;5.846;2023-03-01T06:21:11;25.03;;;14.57;;
54679;SDS011;40578;53.178;5.846;2023-03-01T06:23:36;21.97;;;14.30;;
54679;SDS011;40578;53.178;5.846;2023-03-01T06:26:06;58.60;;;17.50;;
54679;SDS011;40578;53.178;5.846;2023-03-01T06:28:32;30.00;;;15.13;;
54679;SDS011;40578;53.178;5.846;2023-03-01T06:30:58;48.80;;;16.85;;
54679;SDS011;40578;53.178;5.846;2023-03-01T06:33:24;26.90;;;15.47;;
54679;SDS011;40578;53.178;5.846;2023-03-01T06:35:50;85.23;;;18.17;;
54679;SDS011;40578;53.178;5.846;2023-03-01T06:38:16;60.60;;;17.85;;
54679;SDS011;40578;53.178;5.846;2023-03-01T06:40:44;76.30;;;17.47;;
54679;SDS011;40578;53.178;5.846;2023-03-01T06:43:10;73.65;;;17.10;;
54679;SDS011;40578;53.178;5.846;2023-03-01T06:45:36;61.15;;;18.15;;
54679;SDS011;40578;53.178;5.846;2023-03-01T06:48:05;107.35;;;16.23;;
54679;SDS011;40578;53.178;5.846;2023-03-01T06:50:32;107.80;;;16.77;;
54679;SDS011;40578;53.178;5.846;2023-03-01T06:53:00;142.73;;;19.37;;
54679;SDS011;40578;53.178;5.846;2023-03-01T06:55:26;140.73;;;17.55;;
54679;SDS011;40578;53.178;5.846;2023-03-01T06:57:56;155.20;;;18.90;;
54679;SDS011;40578;53.178;5.846;2023-03-01T07:00:23;185.40;;;19.93;;
54679;SDS011;40578;53.178;5.846;2023-03-01T07:02:50;157.90;;;18.93;;
54679;SDS011;40578;53.178;5.846;2023-03-01T07:05:16;99.72;;;16.77;;
54679;SDS011;40578;53.178;5.846;2023-03-01T07:07:41;96.57;;;17.30;;
54679;SDS011;40578;53.178;5.846;2023-03-01T07:10:07;111.93;;;17.30;;
54679;SDS011;40578;53.178;5.846;2023-03-01T07:12:34;125.50;;;18.52;;
54679;SDS011;40578;53.178;5.846;2023-03-01T07:14:59;124.27;;;18.73;;
54679;SDS011;40578;53.178;5.846;2023-03-01T07:17:25;102.27;;;17.17;;
54679;SDS011;40578;53.178;5.846;2023-03-01T07:19:50;118.70;;;19.20;;
54679;SDS011;40578;53.178;5.846;2023-03-01T07:22:16;202.47;;;21.20;;
54679;SDS011;40578;53.178;5.846;2023-03-01T07:24:42;85.30;;;19.20;;
54679;SDS011;40578;53.178;5.846;2023-03-01T07:27:08;147.45;;;19.77;;
54679;SDS011;40578;53.178;5.846;2023-03-01T07:29:35;105.63;;;19.90;;
54679;SDS011;40578;53.178;5.846;2023-03-01T07:32:01;121.43;;;20.08;;
54679;SDS011;40578;53.178;5.846;2023-03-01T07:34:28;101.18;;;19.25;;
54679;SDS011;40578;53.178;5.846;2023-03-01T07:36:53;82.73;;;18.27;;
54679;SDS011;40578;53.178;5.846;2023-03-01T07:39:19;91.37;;;18.80;;
54679;SDS011;40578;53.178;5.846;2023-03-01T07:41:45;75.27;;;17.63;;
54679;SDS011;40578;53.178;5.846;2023-03-01T07:44:10;74.73;;;16.83;;
54679;SDS011;40578;53.178;5.846;2023-03-01T07:46:36;121.60;;;19.87;;
54679;SDS011;40578;53.178;5.846;2023-03-01T07:49:02;84.73;;;21.93;;
54679;SDS011;40578;53.178;5.846;2023-03-01T07:51:27;56.73;;;22.70;;
54679;SDS011;40578;53.178;5.846;2023-03-01T07:53:53;67.13;;;24.53;;
54679;SDS011;40578;53.178;5.846;2023-03-01T07:56:19;61.77;;;26.80;;
54679;SDS011;40578;53.178;5.846;2023-03-01T07:58:46;45.37;;;23.53;;
54679;SDS011;40578;53.178;5.846;2023-03-01T08:01:14;33.87;;;23.33;;
54679;SDS011;40578;53.178;5.846;2023-03-01T08:03:42;43.40;;;23.80;;
54679;SDS011;40578;53.178;5.846;2023-03-01T08:06:09;34.85;;;22.90;;
54679;SDS011;40578;53.178;5.846;2023-03-01T08:08:36;35.13;;;23.50;;
54679;SDS011;40578;53.178;5.846;2023-03-01T08:11:02;32.08;;;22.25;;
54679;SDS011;40578;53.178;5.846;2023-03-01T08:13:30;31.83;;;22.53;;
54679;SDS011;40578;53.178;5.846;2023-03-01T08:18:29;32.03;;;21.50;;
54679;SDS011;40578;53.178;5.846;2023-03-01T08:20:54;31.23;;;21.47;;
54679;SDS011;40578;53.178;5.846;2023-03-01T08:23:20;32.00;;;21.23;;
54679;SDS011;40578;53.178;5.846;2023-03-01T08:25:46;36.40;;;23.73;;
54679;SDS011;40578;53.178;5.846;2023-03-01T08:28:11;39.10;;;24.27;;
54679;SDS011;40578;53.178;5.846;2023-03-01T08:30:37;38.20;;;24.47;;
54679;SDS011;40578;53.178;5.846;2023-03-01T08:33:02;38.07;;;24.63;;
54679;SDS011;40578;53.178;5.846;2023-03-01T08:35:28;38.40;;;25.73;;
54679;SDS011;40578;53.178;5.846;2023-03-01T08:37:54;35.63;;;23.40;;
54679;SDS011;40578;53.178;5.846;2023-03-01T08:40:19;36.60;;;25.20;;
54679;SDS011;40578;53.178;5.846;2023-03-01T08:42:45;41.97;;;25.77;;
54679;SDS011;40578;53.178;5.846;2023-03-01T08:45:11;49.27;;;30.00;;
54679;SDS011;40578;53.178;5.846;2023-03-01T08:50:03;43.97;;;27.23;;
54679;SDS011;40578;53.178;5.846;2023-03-01T08:52:29;47.25;;;29.83;;
54679;SDS011;40578;53.178;5.846;2023-03-01T08:54:56;47.33;;;30.33;;
54679;SDS011;40578;53.178;5.846;2023-03-01T08:57:22;52.67;;;32.63;;
54679;SDS011;40578;53.178;5.846;2023-03-01T08:59:48;52.20;;;32.93;;
54679;SDS011;40578;53.178;5.846;2023-03-01T09:02:15;53.57;;;31.73;;
54679;SDS011;40578;53.178;5.846;2023-03-01T09:04:41;53.37;;;32.77;;
54679;SDS011;40578;53.178;5.846;2023-03-01T09:07:07;51.33;;;31.20;;
54679;SDS011;40578;53.178;5.846;2023-03-01T09:09:33;54.13;;;33.55;;
54679;SDS011;40578;53.178;5.846;2023-03-01T09:11:59;50.17;;;34.03;;
54679;SDS011;40578;53.178;5.846;2023-03-01T09:14:25;51.67;;;32.57;;
54679;SDS011;40578;53.178;5.846;2023-03-01T09:16:51;47.17;;;31.73;;
54679;SDS011;40578;53.178;5.846;2023-03-01T09:19:16;49.93;;;30.33;;
54679;SDS011;40578;53.178;5.846;2023-03-01T09:21:42;47.93;;;30.03;;
54679;SDS011;40578;53.178;5.846;2023-03-01T09:24:17;52.97;;;31.40;;
54679;SDS011;40578;53.178;5.846;2023-03-01T09:26:43;47.93;;;29.97;;
54679;SDS011;40578;53.178;5.846;2023-03-01T09:29:11;50.00;;;27.67;;
54679;SDS011;40578;53.178;5.846;2023-03-01T09:31:37;43.92;;;28.35;;
54679;SDS011;40578;53.178;5.846;2023-03-01T09:34:03;40.75;;;27.48;;
54679;SDS011;40578;53.178;5.846;2023-03-01T09:36:29;44.10;;;28.73;;
54679;SDS011;40578;53.178;5.846;2023-03-01T09:38:56;39.78;;;26.05;;
54679;SDS011;40578;53.178;5.846;2023-03-01T09:46:38;38.57;;;24.17;;
54679;SDS011;40578;53.178;5.846;2023-03-01T09:49:17;36.43;;;24.90;;
54679;SDS011;40578;53.178;5.846;2023-03-01T09:51:53;40.20;;;25.73;;
54679;SDS011;40578;53.178;5.846;2023-03-01T09:54:31;39.57;;;24.10;;
54679;SDS011;40578;53.178;5.846;2023-03-01T10:04:54;35.07;;;21.20;;
54679;SDS011;40578;53.178;5.846;2023-03-01T10:10:25;28.90;;;19.43;;
54679;SDS011;40578;53.178;5.846;2023-03-01T10:12:53;29.43;;;19.60;;
54679;SDS011;40578;53.178;5.846;2023-03-01T10:15:24;30.37;;;19.93;;
54679;SDS011;40578;53.178;5.846;2023-03-01T10:18:20;29.57;;;19.10;;
54679;SDS011;40578;53.178;5.846;2023-03-01T10:21:10;28.13;;;19.07;;
54679;SDS011;40578;53.178;5.846;2023-03-01T10:23:38;30.37;;;19.77;;
54679;SDS011;40578;53.178;5.846;2023-03-01T10:26:07;28.53;;;18.77;;
54679;SDS011;40578;53.178;5.846;2023-03-01T10:28:57;33.97;;;19.13;;
54679;SDS011;40578;53.178;5.846;2023-03-01T10:31:39;30.07;;;19.70;;
54679;SDS011;40578;53.178;5.846;2023-03-01T10:34:14;30.30;;;19.40;;
54679;SDS011;40578;53.178;5.846;2023-03-01T10:36:49;30.40;;;20.30;;
54679;SDS011;40578;53.178;5.846;2023-03-01T10:39:19;31.10;;;20.80;;
54679;SDS011;40578;53.178;5.846;2023-03-01T10:41:57;29.53;;;20.20;;
54679;SDS011;40578;53.178;5.846;2023-03-01T10:44:41;31.80;;;21.73;;
54679;SDS011;40578;53.178;5.846;2023-03-01T10:47:12;30.97;;;20.83;;
54679;SDS011;40578;53.178;5.846;2023-03-01T10:54:59;29.63;;;20.23;;
54679;SDS011;40578;53.178;5.846;2023-03-01T10:57:38;30.65;;;20.60;;
54679;SDS011;40578;53.178;5.846;2023-03-01T11:00:16;30.67;;;19.92;;
54679;SDS011;40578;53.178;5.846;2023-03-01T11:05:25;31.50;;;20.77;;
54679;SDS011;40578;53.178;5.846;2023-03-01T11:07:54;28.80;;;19.33;;
54679;SDS011;40578;53.178;5.846;2023-03-01T11:10:32;28.88;;;20.15;;
54679;SDS011;40578;53.178;5.846;2023-03-01T11:13:14;29.42;;;20.65;;
54679;SDS011;40578;53.178;5.846;2023-03-01T11:15:42;30.90;;;20.73;;
54679;SDS011;40578;53.178;5.846;2023-03-01T11:18:23;30.20;;;21.10;;
54679;SDS011;40578;53.178;5.846;2023-03-01T11:20:49;28.07;;;18.90;;
54679;SDS011;40578;53.178;5.846;2023-03-01T11:23:17;30.63;;;19.10;;
54679;SDS011;40578;53.178;5.846;2023-03-01T11:25:48;28.92;;;19.98;;
54679;SDS011;40578;53.178;5.846;2023-03-01T11:28:23;28.05;;;19.17;;
54679;SDS011;40578;53.178;5.846;2023-03-01T11:30:55;27.65;;;19.40;;
54679;SDS011;40578;53.178;5.846;2023-03-01T11:38:50;26.02;;;19.05;;
54679;SDS011;40578;53.178;5.846;2023-03-01T11:52:10;23.67;;;16.90;;
54679;SDS011;40578;53.178;5.846;2023-03-01T11:54:51;24.40;;;16.95;;
54679;SDS011;40578;53.178;5.846;2023-03-01T12:08:42;24.52;;;16.40;;
54679;SDS011;40578;53.178;5.846;2023-03-01T12:22:17;24.45;;;16.40;;
54679;SDS011;40578;53.178;5.846;2023-03-01T12:30:06;25.73;;;17.02;;
54679;SDS011;40578;53.178;5.846;2023-03-01T12:35:50;22.98;;;15.25;;
54679;SDS011;40578;53.178;5.846;2023-03-01T12:39:12;22.88;;;16.08;;
54679;SDS011;40578;53.178;5.846;2023-03-01T12:41:32;24.20;;;16.75;;
54679;SDS011;40578;53.178;5.846;2023-03-01T12:44:23;21.92;;;15.75;;
54679;SDS011;40578;53.178;5.846;2023-03-01T12:50:04;22.15;;;15.45;;
54679;SDS011;40578;53.178;5.846;2023-03-01T12:53:20;23.38;;;15.50;;
54679;SDS011;40578;53.178;5.846;2023-03-01T12:55:35;23.05;;;14.98;;
54679;SDS011;40578;53.178;5.846;2023-03-01T12:58:13;24.00;;;16.10;;
54679;SDS011;40578;53.178;5.846;2023-03-01T13:17:51;21.98;;;15.35;;
54679;SDS011;40578;53.178;5.846;2023-03-01T13:30:59;20.08;;;14.40;;
54679;SDS011;40578;53.178;5.846;2023-03-01T13:35:52;22.03;;;14.47;;
54679;SDS011;40578;53.178;5.846;2023-03-01T13:41:09;21.27;;;14.32;;
54679;SDS011;40578;53.178;5.846;2023-03-01T13:43:35;20.07;;;13.97;;
54679;SDS011;40578;53.178;5.846;2023-03-01T13:46:11;23.20;;;14.60;;
54679;SDS011;40578;53.178;5.846;2023-03-01T13:48:47;21.70;;;14.73;;
54679;SDS011;40578;53.178;5.846;2023-03-01T13:51:19;20.55;;;12.90;;
54679;SDS011;40578;53.178;5.846;2023-03-01T13:53:50;18.80;;;13.55;;
54679;SDS011;40578;53.178;5.846;2023-03-01T13:58:49;20.88;;;14.00;;
54679;SDS011;40578;53.178;5.846;2023-03-01T14:01:23;18.50;;;12.93;;
54679;SDS011;40578;53.178;5.846;2023-03-01T14:04:00;16.67;;;11.48;;
54679;SDS011;40578;53.178;5.846;2023-03-01T14:09:05;18.45;;;12.60;;
54679;SDS011;40578;53.178;5.846;2023-03-01T14:12:02;18.55;;;12.95;;
54679;SDS011;40578;53.178;5.846;2023-03-01T14:14:54;20.38;;;13.43;;
54679;SDS011;40578;53.178;5.846;2023-03-01T14:20:21;18.65;;;13.60;;
54679;SDS011;40578;53.178;5.846;2023-03-01T14:22:55;20.55;;;13.38;;
54679;SDS011;40578;53.178;5.846;2023-03-01T14:25:24;20.13;;;13.82;;
54679;SDS011;40578;53.178;5.846;2023-03-01T14:27:54;20.98;;;13.93;;
54679;SDS011;40578;53.178;5.846;2023-03-01T14:30:24;23.35;;;12.98;;
54679;SDS011;40578;53.178;5.846;2023-03-01T14:32:58;20.35;;;12.88;;
54679;SDS011;40578;53.178;5.846;2023-03-01T14:35:33;20.55;;;13.30;;
54679;SDS011;40578;53.178;5.846;2023-03-01T14:38:00;20.15;;;12.05;;
54679;SDS011;40578;53.178;5.846;2023-03-01T14:40:28;18.58;;;12.00;;
54679;SDS011;40578;53.178;5.846;2023-03-01T14:42:57;19.25;;;12.88;;
54679;SDS011;40578;53.178;5.846;2023-03-01T14:45:28;20.33;;;13.45;;
54679;SDS011;40578;53.178;5.846;2023-03-01T14:47:55;15.85;;;11.93;;
54679;SDS011;40578;53.178;5.846;2023-03-01T14:50:27;18.13;;;13.15;;
54679;SDS011;40578;53.178;5.846;2023-03-01T14:52:57;19.75;;;13.48;;
54679;SDS011;40578;53.178;5.846;2023-03-01T14:55:32;18.30;;;12.65;;
54679;SDS011;40578;53.178;5.846;2023-03-01T14:58:03;19.25;;;12.52;;
54679;SDS011;40578;53.178;5.846;2023-03-01T15:00:30;18.20;;;13.30;;
54679;SDS011;40578;53.178;5.846;2023-03-01T15:03:01;20.75;;;12.80;;
54679;SDS011;40578;53.178;5.846;2023-03-01T15:05:39;18.17;;;12.43;;
54679;SDS011;40578;53.178;5.846;2023-03-01T15:08:06;18.75;;;13.23;;
54679;SDS011;40578;53.178;5.846;2023-03-01T15:10:34;21.80;;;13.80;;
54679;SDS011;40578;53.178;5.846;2023-03-01T15:13:14;18.33;;;13.48;;
54679;SDS011;40578;53.178;5.846;2023-03-01T15:15:50;20.73;;;13.00;;
54679;SDS011;40578;53.178;5.846;2023-03-01T15:18:20;17.98;;;10.95;;
54679;SDS011;40578;53.178;5.846;2023-03-01T15:20:53;15.20;;;10.73;;
54679;SDS011;40578;53.178;5.846;2023-03-01T15:23:26;16.00;;;10.13;;
54679;SDS011;40578;53.178;5.846;2023-03-01T15:25:54;16.83;;;11.02;;
54679;SDS011;40578;53.178;5.846;2023-03-01T15:28:22;16.02;;;10.68;;
54679;SDS011;40578;53.178;5.846;2023-03-01T15:30:57;17.08;;;11.63;;
54679;SDS011;40578;53.178;5.846;2023-03-01T15:33:31;17.05;;;11.48;;
54679;SDS011;40578;53.178;5.846;2023-03-01T15:36:03;16.40;;;11.32;;
54679;SDS011;40578;53.178;5.846;2023-03-01T15:39:05;16.30;;;11.30;;
54679;SDS011;40578;53.178;5.846;2023-03-01T15:41:55;17.27;;;11.98;;
54679;SDS011;40578;53.178;5.846;2023-03-01T15:44:25;16.52;;;11.98;;
54679;SDS011;40578;53.178;5.846;2023-03-01T15:46:53;19.13;;;12.15;;
54679;SDS011;40578;53.178;5.846;2023-03-01T15:52:02;17.88;;;12.48;;
54679;SDS011;40578;53.178;5.846;2023-03-01T15:54:29;18.05;;;12.70;;
54679;SDS011;40578;53.178;5.846;2023-03-01T15:56:55;18.40;;;12.27;;
54679;SDS011;40578;53.178;5.846;2023-03-01T15:59:21;18.27;;;13.30;;
54679;SDS011;40578;53.178;5.846;2023-03-01T16:01:47;19.23;;;13.55;;
54679;SDS011;40578;53.178;5.846;2023-03-01T16:04:14;19.23;;;13.40;;
54679;SDS011;40578;53.178;5.846;2023-03-01T16:06:52;22.92;;;14.18;;
54679;SDS011;40578;53.178;5.846;2023-03-01T16:09:22;20.23;;;14.40;;
54679;SDS011;40578;53.178;5.846;2023-03-01T16:11:49;18.35;;;14.00;;
54679;SDS011;40578;53.178;5.846;2023-03-01T16:14:16;21.70;;;15.50;;
54679;SDS011;40578;53.178;5.846;2023-03-01T16:16:42;21.03;;;14.97;;
54679;SDS011;40578;53.178;5.846;2023-03-01T16:21:35;18.77;;;13.18;;
54679;SDS011;40578;53.178;5.846;2023-03-01T16:24:01;18.23;;;12.80;;
54679;SDS011;40578;53.178;5.846;2023-03-01T16:26:26;17.63;;;12.67;;
54679;SDS011;40578;53.178;5.846;2023-03-01T16:28:54;19.20;;;14.00;;
54679;SDS011;40578;53.178;5.846;2023-03-01T16:31:21;18.15;;;13.00;;
54679;SDS011;40578;53.178;5.846;2023-03-01T16:33:48;17.70;;;12.60;;
54679;SDS011;40578;53.178;5.846;2023-03-01T16:36:18;19.80;;;14.07;;
54679;SDS011;40578;53.178;5.846;2023-03-01T16:38:44;22.42;;;16.23;;
54679;SDS011;40578;53.178;5.846;2023-03-01T16:41:14;25.63;;;18.70;;
54679;SDS011;40578;53.178;5.846;2023-03-01T16:43:42;25.52;;;18.15;;
54679;SDS011;40578;53.178;5.846;2023-03-01T16:46:26;24.90;;;18.07;;
54679;SDS011;40578;53.178;5.846;2023-03-01T16:48:53;25.42;;;17.85;;
54679;SDS011;40578;53.178;5.846;2023-03-01T16:51:20;26.73;;;17.52;;
54679;SDS011;40578;53.178;5.846;2023-03-01T16:53:47;28.30;;;19.10;;
54679;SDS011;40578;53.178;5.846;2023-03-01T16:56:13;28.42;;;20.23;;
54679;SDS011;40578;53.178;5.846;2023-03-01T17:01:06;28.70;;;18.63;;
54679;SDS011;40578;53.178;5.846;2023-03-01T17:03:37;28.27;;;17.05;;
54679;SDS011;40578;53.178;5.846;2023-03-01T17:08:31;23.45;;;17.00;;
54679;SDS011;40578;53.178;5.846;2023-03-01T17:11:07;27.77;;;17.20;;
54679;SDS011;40578;53.178;5.846;2023-03-01T17:13:35;25.38;;;16.75;;
54679;SDS011;40578;53.178;5.846;2023-03-01T17:16:05;24.45;;;16.15;;